sensor_id;sensor_type;location;lat;lon;timestamp;pressure;altitude;pressure_sealevel;temperature;humidity
60099;BME280;62818;49.394;8.686;2024-03-23T00:58:33;99561.72;;;13.72;100.00
60099;BME280;62818;49.394;8.686;2024-03-23T01:03:35;99544.00;;;13.59;100.00
60099;BME280;62818;49.394;8.686;2024-03-23T01:08:36;99540.66;;;13.64;100.00
60099;BME280;62818;49.394;8.686;2024-03-23T01:13:36;99536.00;;;13.59;100.00
60099;BME280;62818;49.394;8.686;2024-03-23T01:18:36;99533.13;;;13.61;100.00
60099;BME280;62818;49.394;8.686;2024-03-23T01:23:37;99526.00;;;13.55;100.00
60099;BME280;62818;49.394;8.686;2024-03-23T01:28:38;99518.75;;;13.62;100.00
60099;BME280;62818;49.394;8.686;2024-03-23T01:33:38;99506.09;;;13.57;100.00
60099;BME280;62818;49.394;8.686;2024-03-23T01:38:39;99502.72;;;13.68;100.00
60099;BME280;62818;49.394;8.686;2024-03-23T01:43:39;99504.03;;;13.84;100.00
60099;BME280;62818;49.394;8.686;2024-03-23T01:48:41;99487.47;;;13.82;100.00
60099;BME280;62818;49.394;8.686;2024-03-23T01:53:42;99485.09;;;13.74;100.00
60099;BME280;62818;49.394;8.686;2024-03-23T01:58:42;99484.03;;;13.75;100.00
60099;BME280;62818;49.394;8.686;2024-03-23T02:03:43;99481.06;;;13.65;100.00
60099;BME280;62818;49.394;8.686;2024-03-23T02:08:43;99463.84;;;13.67;100.00
60099;BME280;62818;49.394;8.686;2024-03-23T02:13:44;99466.97;;;13.58;100.00
60099;BME280;62818;49.394;8.686;2024-03-23T02:18:44;99457.44;;;13.50;100.00
60099;BME280;62818;49.394;8.686;2024-03-23T02:23:45;99452.03;;;13.57;100.00
60099;BME280;62818;49.394;8.686;2024-03-23T02:28:45;99448.78;;;13.55;100.00
60099;BME280;62818;49.394;8.686;2024-03-23T02:33:46;99445.19;;;13.43;100.00
60099;BME280;62818;49.394;8.686;2024-03-23T02:38:46;99445.19;;;13.43;100.00
60099;BME280;62818;49.394;8.686;2024-03-23T02:43:49;99450.94;;;13.39;100.00
60099;BME280;62818;49.394;8.686;2024-03-23T02:48:50;99452.94;;;13.19;100.00
60099;BME280;62818;49.394;8.686;2024-03-23T02:53:50;99455.84;;;13.11;100.00
60099;BME280;62818;49.394;8.686;2024-03-23T02:58:51;99459.88;;;13.20;100.00
60099;BME280;62818;49.394;8.686;2024-03-23T03:03:51;99464.41;;;13.13;100.00
60099;BME280;62818;49.394;8.686;2024-03-23T03:08:52;99457.84;;;13.16;100.00
60099;BME280;62818;49.394;8.686;2024-03-23T03:13:52;99466.69;;;13.03;100.00
60099;BME280;62818;49.394;8.686;2024-03-23T03:18:53;99460.72;;;13.14;100.00
60099;BME280;62818;49.394;8.686;2024-03-23T03:23:53;99461.16;;;13.11;100.00
60099;BME280;62818;49.394;8.686;2024-03-23T03:28:56;99443.69;;;12.84;100.00
60099;BME280;62818;49.394;8.686;2024-03-23T03:33:56;99444.78;;;13.14;100.00
60099;BME280;62818;49.394;8.686;2024-03-23T03:38:57;99455.00;;;13.11;100.00
60099;BME280;62818;49.394;8.686;2024-03-23T03:43:57;99447.84;;;12.67;100.00
60099;BME280;62818;49.394;8.686;2024-03-23T03:49:02;99427.66;;;12.59;100.00
60099;BME280;62818;49.394;8.686;2024-03-23T03:54:02;99434.06;;;12.83;100.00
60099;BME280;62818;49.394;8.686;2024-03-23T03:59:03;99434.25;;;12.88;100.00
60099;BME280;62818;49.394;8.686;2024-03-23T04:04:03;99432.56;;;12.56;100.00
60099;BME280;62818;49.394;8.686;2024-03-23T04:09:04;99413.81;;;12.89;100.00
60099;BME280;62818;49.394;8.686;2024-03-23T04:14:04;99410.69;;;12.54;100.00
60099;BME280;62818;49.394;8.686;2024-03-23T04:19:05;99396.69;;;12.72;100.00
60099;BME280;62818;49.394;8.686;2024-03-23T04:24:06;99396.44;;;12.42;100.00
60099;BME280;62818;49.394;8.686;2024-03-23T04:29:06;99404.09;;;12.63;100.00
60099;BME280;62818;49.394;8.686;2024-03-23T04:34:07;99408.72;;;12.36;100.00
60099;BME280;62818;49.394;8.686;2024-03-23T04:39:07;99405.06;;;12.31;100.00
60099;BME280;62818;49.394;8.686;2024-03-23T04:44:08;99423.03;;;12.35;100.00
60099;BME280;62818;49.394;8.686;2024-03-23T04:49:10;99420.41;;;12.29;100.00
60099;BME280;62818;49.394;8.686;2024-03-23T04:54:10;99420.63;;;12.21;100.00
60099;BME280;62818;49.394;8.686;2024-03-23T04:59:11;99416.53;;;12.25;100.00
60099;BME280;62818;49.394;8.686;2024-03-23T05:04:11;99427.59;;;12.15;100.00
60099;BME280;62818;49.394;8.686;2024-03-23T05:09:12;99443.75;;;12.20;100.00
60099;BME280;62818;49.394;8.686;2024-03-23T05:14:16;99460.72;;;12.00;100.00
60099;BME280;62818;49.394;8.686;2024-03-23T05:19:16;99476.28;;;11.89;100.00
60099;BME280;62818;49.394;8.686;2024-03-23T05:24:16;99477.88;;;11.64;100.00
60099;BME280;62818;49.394;8.686;2024-03-23T05:29:17;99454.22;;;11.63;100.00
60099;BME280;62818;49.394;8.686;2024-03-23T05:34:18;99487.44;;;11.26;100.00
60099;BME280;62818;49.394;8.686;2024-03-23T05:39:18;99469.84;;;10.99;100.00
60099;BME280;62818;49.394;8.686;2024-03-23T05:44:22;99506.16;;;10.58;100.00
60099;BME280;62818;49.394;8.686;2024-03-23T05:49:22;99542.44;;;9.53;100.00
60099;BME280;62818;49.394;8.686;2024-03-23T05:54:23;99567.94;;;9.04;100.00
60099;BME280;62818;49.394;8.686;2024-03-23T05:59:23;99590.75;;;8.75;100.00
60099;BME280;62818;49.394;8.686;2024-03-23T06:04:23;99614.81;;;8.80;100.00
60099;BME280;62818;49.394;8.686;2024-03-23T06:09:24;99635.19;;;8.57;100.00
60099;BME280;62818;49.394;8.686;2024-03-23T06:14:25;99642.88;;;8.67;100.00
60099;BME280;62818;49.394;8.686;2024-03-23T06:19:27;99664.53;;;8.62;100.00
60099;BME280;62818;49.394;8.686;2024-03-23T06:24:27;99672.56;;;8.54;100.00
60099;BME280;62818;49.394;8.686;2024-03-23T06:29:28;99686.75;;;8.53;100.00
60099;BME280;62818;49.394;8.686;2024-03-23T06:34:28;99684.63;;;9.01;100.00
60099;BME280;62818;49.394;8.686;2024-03-23T06:39:29;99698.97;;;8.54;100.00
60099;BME280;62818;49.394;8.686;2024-03-23T06:44:29;99705.41;;;8.52;100.00
60099;BME280;62818;49.394;8.686;2024-03-23T06:49:30;99744.03;;;8.53;100.00
60099;BME280;62818;49.394;8.686;2024-03-23T06:54:31;99733.13;;;8.56;100.00
60099;BME280;62818;49.394;8.686;2024-03-23T06:59:31;99746.31;;;8.56;100.00
60099;BME280;62818;49.394;8.686;2024-03-23T07:04:31;99749.19;;;8.46;100.00
60099;BME280;62818;49.394;8.686;2024-03-23T07:09:32;99757.75;;;8.48;100.00
60099;BME280;62818;49.394;8.686;2024-03-23T07:14:32;99764.28;;;8.60;100.00
60099;BME280;62818;49.394;8.686;2024-03-23T07:19:33;99803.91;;;8.60;100.00
60099;BME280;62818;49.394;8.686;2024-03-23T07:24:33;99809.19;;;8.60;100.00
60099;BME280;62818;49.394;8.686;2024-03-23T07:29:34;99816.22;;;8.45;100.00
60099;BME280;62818;49.394;8.686;2024-03-23T07:34:34;99830.53;;;8.28;100.00
60099;BME280;62818;49.394;8.686;2024-03-23T07:39:35;99825.19;;;8.36;100.00
60099;BME280;62818;49.394;8.686;2024-03-23T07:44:35;99837.66;;;8.50;100.00
60099;BME280;62818;49.394;8.686;2024-03-23T07:49:36;99868.16;;;8.30;100.00
60099;BME280;62818;49.394;8.686;2024-03-23T07:54:36;99890.25;;;8.29;100.00
60099;BME280;62818;49.394;8.686;2024-03-23T07:59:37;99900.75;;;8.45;100.00
60099;BME280;62818;49.394;8.686;2024-03-23T08:04:38;99905.78;;;8.32;100.00
60099;BME280;62818;49.394;8.686;2024-03-23T08:09:39;99913.69;;;8.63;100.00
60099;BME280;62818;49.394;8.686;2024-03-23T08:14:39;99927.28;;;8.52;100.00
60099;BME280;62818;49.394;8.686;2024-03-23T08:19:40;99942.97;;;8.53;100.00
60099;BME280;62818;49.394;8.686;2024-03-23T08:24:40;99947.94;;;8.48;100.00
60099;BME280;62818;49.394;8.686;2024-03-23T08:29:40;99956.88;;;8.47;100.00
60099;BME280;62818;49.394;8.686;2024-03-23T08:34:41;99972.28;;;8.66;100.00
60099;BME280;62818;49.394;8.686;2024-03-23T08:39:43;99964.00;;;8.69;100.00
60099;BME280;62818;49.394;8.686;2024-03-23T08:44:44;99975.56;;;8.68;100.00
60099;BME280;62818;49.394;8.686;2024-03-23T08:49:46;99967.81;;;8.98;100.00
60099;BME280;62818;49.394;8.686;2024-03-23T08:54:47;99988.44;;;9.25;100.00
60099;BME280;62818;49.394;8.686;2024-03-23T08:59:47;99984.56;;;9.13;100.00
60099;BME280;62818;49.394;8.686;2024-03-23T09:04:47;100000.44;;;9.35;100.00
60099;BME280;62818;49.394;8.686;2024-03-23T09:09:48;100000.13;;;9.53;100.00
60099;BME280;62818;49.394;8.686;2024-03-23T09:14:49;100009.41;;;9.26;100.00
60099;BME280;62818;49.394;8.686;2024-03-23T09:19:50;100017.78;;;11.21;100.00
60099;BME280;62818;49.394;8.686;2024-03-23T09:24:51;100011.72;;;10.26;100.00
60099;BME280;62818;49.394;8.686;2024-03-23T09:29:51;100011.97;;;9.80;100.00
60099;BME280;62818;49.394;8.686;2024-03-23T09:34:51;100005.09;;;10.22;100.00
60099;BME280;62818;49.394;8.686;2024-03-23T09:39:52;99992.06;;;10.21;100.00
60099;BME280;62818;49.394;8.686;2024-03-23T09:44:52;99995.91;;;9.81;100.00
60099;BME280;62818;49.394;8.686;2024-03-23T09:49:54;99999.78;;;9.93;100.00
60099;BME280;62818;49.394;8.686;2024-03-23T09:54:54;100017.66;;;9.31;100.00
60099;BME280;62818;49.394;8.686;2024-03-23T09:59:55;100005.44;;;9.67;100.00
60099;BME280;62818;49.394;8.686;2024-03-23T10:04:57;99998.66;;;9.50;100.00
60099;BME280;62818;49.394;8.686;2024-03-23T10:09:57;100008.38;;;9.58;100.00
60099;BME280;62818;49.394;8.686;2024-03-23T10:14:58;100000.78;;;9.55;100.00
60099;BME280;62818;49.394;8.686;2024-03-23T10:19:58;100002.56;;;10.14;100.00
60099;BME280;62818;49.394;8.686;2024-03-23T10:25:06;100002.78;;;9.90;99.54
60099;BME280;62818;49.394;8.686;2024-03-23T10:30:13;99999.63;;;10.38;97.12
60099;BME280;62818;49.394;8.686;2024-03-23T10:35:19;99995.53;;;10.36;95.98
60099;BME280;62818;49.394;8.686;2024-03-23T10:40:24;100007.13;;;10.50;93.05
60099;BME280;62818;49.394;8.686;2024-03-23T10:45:25;100000.28;;;10.55;91.20
60099;BME280;62818;49.394;8.686;2024-03-23T10:50:25;99991.03;;;10.66;87.91
60099;BME280;62818;49.394;8.686;2024-03-23T10:55:27;99985.31;;;11.40;83.44
60099;BME280;62818;49.394;8.686;2024-03-23T11:00:29;99973.47;;;13.14;80.79
60099;BME280;62818;49.394;8.686;2024-03-23T11:05:29;99975.88;;;12.42;72.72
60099;BME280;62818;49.394;8.686;2024-03-23T11:10:31;99977.59;;;13.16;75.42
60099;BME280;62818;49.394;8.686;2024-03-23T11:15:33;99986.00;;;12.32;66.06
60099;BME280;62818;49.394;8.686;2024-03-23T11:20:33;100002.19;;;11.75;59.47
60099;BME280;62818;49.394;8.686;2024-03-23T11:25:35;99989.03;;;11.95;58.39
60099;BME280;62818;49.394;8.686;2024-03-23T11:30:36;99992.41;;;12.91;55.41
60099;BME280;62818;49.394;8.686;2024-03-23T11:35:39;99974.53;;;13.19;56.44
60099;BME280;62818;49.394;8.686;2024-03-23T11:40:41;99945.00;;;12.07;54.33
60099;BME280;62818;49.394;8.686;2024-03-23T11:45:50;99967.47;;;11.76;55.82
60099;BME280;62818;49.394;8.686;2024-03-23T11:50:57;99956.34;;;11.66;58.69
60099;BME280;62818;49.394;8.686;2024-03-23T11:55:59;99946.88;;;12.13;60.04
60099;BME280;62818;49.394;8.686;2024-03-23T12:01:04;99952.78;;;12.08;58.94
60099;BME280;62818;49.394;8.686;2024-03-23T12:06:05;100009.22;;;9.73;75.81
60099;BME280;62818;49.394;8.686;2024-03-23T12:11:11;100017.41;;;7.70;100.00
60099;BME280;62818;49.394;8.686;2024-03-23T12:16:21;100013.34;;;6.85;100.00
60099;BME280;62818;49.394;8.686;2024-03-23T12:21:26;100003.41;;;7.77;100.00
60099;BME280;62818;49.394;8.686;2024-03-23T12:26:27;100031.56;;;7.93;100.00
60099;BME280;62818;49.394;8.686;2024-03-23T12:31:27;100038.16;;;7.24;100.00
60099;BME280;62818;49.394;8.686;2024-03-23T12:36:28;99986.53;;;7.94;100.00
60099;BME280;62818;49.394;8.686;2024-03-23T12:41:28;100006.53;;;7.57;100.00
60099;BME280;62818;49.394;8.686;2024-03-23T12:46:29;100016.75;;;7.60;100.00
60099;BME280;62818;49.394;8.686;2024-03-23T12:51:29;99982.03;;;8.11;100.00
60099;BME280;62818;49.394;8.686;2024-03-23T12:56:30;99982.81;;;8.74;100.00
60099;BME280;62818;49.394;8.686;2024-03-23T13:01:31;99980.34;;;8.34;100.00
60099;BME280;62818;49.394;8.686;2024-03-23T13:06:31;99985.75;;;8.79;100.00
60099;BME280;62818;49.394;8.686;2024-03-23T13:11:34;99994.44;;;8.65;100.00
60099;BME280;62818;49.394;8.686;2024-03-23T13:16:35;100088.28;;;6.83;100.00
60099;BME280;62818;49.394;8.686;2024-03-23T13:21:35;100093.34;;;6.76;100.00
60099;BME280;62818;49.394;8.686;2024-03-23T13:26:36;100051.28;;;7.00;100.00
60099;BME280;62818;49.394;8.686;2024-03-23T13:31:36;100006.19;;;7.68;100.00
60099;BME280;62818;49.394;8.686;2024-03-23T13:36:37;100010.00;;;8.52;100.00
60099;BME280;62818;49.394;8.686;2024-03-23T13:41:38;100009.78;;;7.99;100.00
60099;BME280;62818;49.394;8.686;2024-03-23T13:46:41;100008.13;;;8.06;100.00
60099;BME280;62818;49.394;8.686;2024-03-23T13:51:47;100013.69;;;8.35;100.00
60099;BME280;62818;49.394;8.686;2024-03-23T13:56:49;100009.13;;;10.18;100.00
60099;BME280;62818;49.394;8.686;2024-03-23T14:01:50;99992.63;;;11.59;100.00
60099;BME280;62818;49.394;8.686;2024-03-23T14:06:51;99998.06;;;11.09;100.00
60099;BME280;62818;49.394;8.686;2024-03-23T14:11:51;99979.28;;;9.87;100.00
60099;BME280;62818;49.394;8.686;2024-03-23T14:16:52;99986.91;;;9.53;100.00
60099;BME280;62818;49.394;8.686;2024-03-23T14:21:53;99989.53;;;10.78;100.00
60099;BME280;62818;49.394;8.686;2024-03-23T14:26:54;99986.31;;;11.39;100.00
60099;BME280;62818;49.394;8.686;2024-03-23T14:31:54;99968.72;;;10.60;100.00
60099;BME280;62818;49.394;8.686;2024-03-23T14:36:54;99969.59;;;10.31;100.00
60099;BME280;62818;49.394;8.686;2024-03-23T14:41:55;99953.69;;;10.82;100.00
60099;BME280;62818;49.394;8.686;2024-03-23T14:46:56;99933.19;;;13.23;100.00
60099;BME280;62818;49.394;8.686;2024-03-23T14:51:56;99942.50;;;13.00;94.50
60099;BME280;62818;49.394;8.686;2024-03-23T14:56:56;99923.25;;;12.91;91.76
60099;BME280;62818;49.394;8.686;2024-03-23T15:01:58;99935.53;;;12.86;90.09
60099;BME280;62818;49.394;8.686;2024-03-23T15:06:58;99938.84;;;12.47;87.71
60099;BME280;62818;49.394;8.686;2024-03-23T15:12:00;99928.88;;;13.55;86.74
60099;BME280;62818;49.394;8.686;2024-03-23T15:17:00;99927.53;;;11.14;87.39
60099;BME280;62818;49.394;8.686;2024-03-23T15:22:04;99914.38;;;11.55;87.59
60099;BME280;62818;49.394;8.686;2024-03-23T15:27:04;99921.22;;;10.59;93.33
60099;BME280;62818;49.394;8.686;2024-03-23T15:32:07;99911.19;;;9.96;90.94
60099;BME280;62818;49.394;8.686;2024-03-23T15:37:08;99913.75;;;10.48;91.49
60099;BME280;62818;49.394;8.686;2024-03-23T15:42:08;99899.16;;;10.22;89.46
60099;BME280;62818;49.394;8.686;2024-03-23T15:47:08;99896.72;;;10.21;89.95
60099;BME280;62818;49.394;8.686;2024-03-23T15:52:09;99885.47;;;9.75;89.50
60099;BME280;62818;49.394;8.686;2024-03-23T15:57:09;99970.00;;;9.54;93.36
60099;BME280;62818;49.394;8.686;2024-03-23T16:02:10;100004.88;;;6.57;100.00
60099;BME280;62818;49.394;8.686;2024-03-23T16:07:11;100013.91;;;5.52;100.00
60099;BME280;62818;49.394;8.686;2024-03-23T16:12:13;100000.31;;;6.00;100.00
60099;BME280;62818;49.394;8.686;2024-03-23T16:17:14;99984.88;;;6.97;100.00
60099;BME280;62818;49.394;8.686;2024-03-23T16:22:14;99894.00;;;7.09;100.00
60099;BME280;62818;49.394;8.686;2024-03-23T16:27:15;99893.97;;;8.04;100.00
60099;BME280;62818;49.394;8.686;2024-03-23T16:32:16;99919.19;;;7.19;100.00
60099;BME280;62818;49.394;8.686;2024-03-23T16:37:17;99919.81;;;8.16;100.00
60099;BME280;62818;49.394;8.686;2024-03-23T16:42:17;99929.03;;;7.66;100.00
60099;BME280;62818;49.394;8.686;2024-03-23T16:47:18;99948.84;;;7.21;100.00
60099;BME280;62818;49.394;8.686;2024-03-23T16:52:19;99970.56;;;7.88;100.00
60099;BME280;62818;49.394;8.686;2024-03-23T16:57:19;99978.19;;;7.34;100.00
60099;BME280;62818;49.394;8.686;2024-03-23T17:02:19;99982.13;;;7.30;100.00
60099;BME280;62818;49.394;8.686;2024-03-23T17:07:20;99969.75;;;7.07;100.00
60099;BME280;62818;49.394;8.686;2024-03-23T17:12:20;99946.00;;;7.71;100.00
60099;BME280;62818;49.394;8.686;2024-03-23T17:17:21;99957.72;;;7.12;100.00
60099;BME280;62818;49.394;8.686;2024-03-23T17:22:21;99931.25;;;6.48;100.00
60099;BME280;62818;49.394;8.686;2024-03-23T17:27:22;99904.84;;;7.38;100.00
60099;BME280;62818;49.394;8.686;2024-03-23T17:32:22;99889.19;;;6.96;100.00
60099;BME280;62818;49.394;8.686;2024-03-23T17:37:23;99881.47;;;11.22;100.00
60099;BME280;62818;49.394;8.686;2024-03-23T17:42:23;99895.78;;;6.92;100.00
60099;BME280;62818;49.394;8.686;2024-03-23T17:47:23;99904.69;;;7.31;100.00
60099;BME280;62818;49.394;8.686;2024-03-23T17:52:24;99892.81;;;11.37;100.00
60099;BME280;62818;49.394;8.686;2024-03-23T17:57:25;99912.69;;;8.33;100.00
60099;BME280;62818;49.394;8.686;2024-03-23T18:02:26;99918.53;;;7.33;100.00
60099;BME280;62818;49.394;8.686;2024-03-23T18:07:27;99927.75;;;6.97;100.00
60099;BME280;62818;49.394;8.686;2024-03-23T18:12:27;99932.38;;;7.19;100.00
60099;BME280;62818;49.394;8.686;2024-03-23T18:17:28;99921.97;;;7.10;100.00
60099;BME280;62818;49.394;8.686;2024-03-23T18:22:28;99929.56;;;7.21;100.00
60099;BME280;62818;49.394;8.686;2024-03-23T18:27:29;99936.34;;;7.15;100.00
60099;BME280;62818;49.394;8.686;2024-03-23T18:32:29;99959.63;;;6.70;100.00
60099;BME280;62818;49.394;8.686;2024-03-23T18:37:30;99980.63;;;6.46;100.00
60099;BME280;62818;49.394;8.686;2024-03-23T18:42:32;99969.72;;;6.33;100.00
60099;BME280;62818;49.394;8.686;2024-03-23T18:47:33;99980.94;;;6.09;100.00
60099;BME280;62818;49.394;8.686;2024-03-23T18:52:34;99959.03;;;6.01;100.00
60099;BME280;62818;49.394;8.686;2024-03-23T18:57:34;99946.69;;;5.75;100.00
60099;BME280;62818;49.394;8.686;2024-03-23T19:02:35;99951.97;;;6.01;100.00
60099;BME280;62818;49.394;8.686;2024-03-23T19:07:35;99945.03;;;5.92;100.00
60099;BME280;62818;49.394;8.686;2024-03-23T19:12:35;99942.72;;;5.71;100.00
60099;BME280;62818;49.394;8.686;2024-03-23T19:17:36;99939.56;;;5.85;100.00
60099;BME280;62818;49.394;8.686;2024-03-23T19:22:36;99938.88;;;5.83;100.00
60099;BME280;62818;49.394;8.686;2024-03-23T19:27:37;99935.63;;;6.73;100.00
60099;BME280;62818;49.394;8.686;2024-03-23T19:32:41;99946.56;;;6.44;100.00
60099;BME280;62818;49.394;8.686;2024-03-23T19:37:42;99943.81;;;6.54;100.00
60099;BME280;62818;49.394;8.686;2024-03-23T19:42:43;99937.19;;;6.42;100.00
60099;BME280;62818;49.394;8.686;2024-03-23T19:47:44;99936.63;;;6.22;100.00
60099;BME280;62818;49.394;8.686;2024-03-23T19:52:45;99936.06;;;6.52;100.00
60099;BME280;62818;49.394;8.686;2024-03-23T19:57:47;99942.16;;;6.61;100.00
60099;BME280;62818;49.394;8.686;2024-03-23T20:02:47;99938.75;;;6.19;100.00
60099;BME280;62818;49.394;8.686;2024-03-23T20:07:48;99945.97;;;6.17;100.00
60099;BME280;62818;49.394;8.686;2024-03-23T20:12:48;99936.25;;;5.83;100.00
60099;BME280;62818;49.394;8.686;2024-03-23T20:17:49;99944.97;;;6.59;100.00
60099;BME280;62818;49.394;8.686;2024-03-23T20:22:49;99943.19;;;6.26;100.00
60099;BME280;62818;49.394;8.686;2024-03-23T20:27:50;99956.13;;;6.04;100.00
60099;BME280;62818;49.394;8.686;2024-03-23T20:32:50;99954.50;;;5.59;100.00
60099;BME280;62818;49.394;8.686;2024-03-23T20:37:51;99960.59;;;5.85;100.00
60099;BME280;62818;49.394;8.686;2024-03-23T20:42:52;99965.94;;;5.50;100.00
60099;BME280;62818;49.394;8.686;2024-03-23T20:47:53;99963.84;;;6.05;100.00
60099;BME280;62818;49.394;8.686;2024-03-23T20:52:54;99966.19;;;5.90;100.00
60099;BME280;62818;49.394;8.686;2024-03-23T20:57:54;99959.25;;;5.81;100.00
60099;BME280;62818;49.394;8.686;2024-03-23T21:02:55;99967.63;;;5.59;100.00
60099;BME280;62818;49.394;8.686;2024-03-23T21:07:55;99950.88;;;5.60;100.00
60099;BME280;62818;49.394;8.686;2024-03-23T21:12:56;99944.81;;;5.85;100.00
60099;BME280;62818;49.394;8.686;2024-03-23T21:17:56;99936.63;;;5.71;100.00
60099;BME280;62818;49.394;8.686;2024-03-23T21:22:57;99927.16;;;5.78;100.00
60099;BME280;62818;49.394;8.686;2024-03-23T21:27:57;99923.88;;;5.50;100.00
60099;BME280;62818;49.394;8.686;2024-03-23T21:32:58;99911.41;;;5.52;100.00
60099;BME280;62818;49.394;8.686;2024-03-23T21:37:58;99898.00;;;5.63;100.00
60099;BME280;62818;49.394;8.686;2024-03-23T21:42:59;99892.00;;;5.53;100.00
60099;BME280;62818;49.394;8.686;2024-03-23T21:47:59;99887.84;;;5.68;100.00
60099;BME280;62818;49.394;8.686;2024-03-23T21:53:00;99888.97;;;6.41;100.00
60099;BME280;62818;49.394;8.686;2024-03-23T21:58:00;99885.41;;;5.49;100.00
60099;BME280;62818;49.394;8.686;2024-03-23T22:03:01;99877.47;;;5.92;100.00
60099;BME280;62818;49.394;8.686;2024-03-23T22:08:01;99870.75;;;5.72;100.00
60099;BME280;62818;49.394;8.686;2024-03-23T22:13:02;99871.63;;;5.55;100.00
60099;BME280;62818;49.394;8.686;2024-03-23T22:18:03;99860.84;;;5.66;100.00
60099;BME280;62818;49.394;8.686;2024-03-23T22:23:03;99861.81;;;5.57;100.00
60099;BME280;62818;49.394;8.686;2024-03-23T22:28:04;99860.47;;;6.21;100.00
60099;BME280;62818;49.394;8.686;2024-03-23T22:33:06;99848.97;;;6.30;100.00
60099;BME280;62818;49.394;8.686;2024-03-23T22:38:07;99851.41;;;5.81;100.00
60099;BME280;62818;49.394;8.686;2024-03-23T22:43:07;99852.97;;;5.92;100.00
60099;BME280;62818;49.394;8.686;2024-03-23T22:48:08;99838.03;;;6.09;100.00
60099;BME280;62818;49.394;8.686;2024-03-23T22:53:09;99835.13;;;5.78;100.00
60099;BME280;62818;49.394;8.686;2024-03-23T22:58:09;99825.13;;;5.81;100.00
60099;BME280;62818;49.394;8.686;2024-03-23T23:03:13;99819.34;;;5.78;100.00
60099;BME280;62818;49.394;8.686;2024-03-23T23:08:14;99823.25;;;6.08;100.00
60099;BME280;62818;49.394;8.686;2024-03-23T23:13:16;99818.50;;;5.77;100.00
60099;BME280;62818;49.394;8.686;2024-03-23T23:18:16;99807.06;;;5.86;100.00
60099;BME280;62818;49.394;8.686;2024-03-23T23:23:18;99795.47;;;5.63;100.00
60099;BME280;62818;49.394;8.686;2024-03-23T23:28:18;99784.19;;;5.45;100.00
60099;BME280;62818;49.394;8.686;2024-03-23T23:33:19;99767.31;;;5.89;100.00
60099;BME280;62818;49.394;8.686;2024-03-23T23:38:20;99776.09;;;5.72;100.00
60099;BME280;62818;49.394;8.686;2024-03-23T23:43:22;99767.97;;;5.91;100.00
60099;BME280;62818;49.394;8.686;2024-03-23T23:48:22;99770.13;;;5.96;100.00
60099;BME280;62818;49.394;8.686;2024-03-23T23:53:23;99763.81;;;5.81;100.00
60099;BME280;62818;49.394;8.686;2024-03-23T23:58:23;99771.56;;;5.90;100.00
